• Join FlightAware (Why Join?)
  • Login
  • US Flag 
05:35PM EST


 

Airport Tracker/Info


-or-


 

Live Flight TrackerFlight Track Log ✈ AAL1398 ✈ 18-May-2013 ✈ MDSD / SDQ - KMIA

Flight Track Log - Related Links

Times and Time Zones

All times are in EDT time to prevent confusion due to time zone crossing. See the AAL1398 flight status page for this flight to view local times or setup timezone preferences in your user account.

Time Position Orientation Groundspeed Altitude Reporting Facility
EDT Latitude Longitude Course Direction KTS MPH feet Rate Location/Type
12:53PM 18.5252 -69.7390 328° Northwest  Level FlightAware Approximate
12:54PM 18.6130 -69.8014 325° Northwest  Level FlightAware Approximate
12:55PM 18.7029 -69.8602 329° Northwest  Level FlightAware Approximate
12:56PM 18.7926 -69.9194 325° Northwest  Level FlightAware Approximate
12:57PM 18.8789 -69.9842 325° Northwest  Level FlightAware Approximate
12:58PM 18.9652 -70.0489 325° Northwest  Level FlightAware Approximate
12:59PM 19.0516 -70.1136 325° Northwest  Level FlightAware Approximate
01:00PM 19.1379 -70.1784 325° Northwest  Level FlightAware Approximate
01:01PM 19.2264 -70.2398 328° Northwest  Level FlightAware Approximate
01:02PM 19.3160 -70.2996 328° Northwest  Level FlightAware Approximate
01:03PM 19.4005 -70.3671 323° Northwest  Level FlightAware Approximate
01:04PM 19.4851 -70.4346 325° Northwest  Level FlightAware Approximate
01:05PM 19.5715 -70.4994 325° Northwest  Level FlightAware Approximate
01:06PM 19.6579 -70.5643 325° Northwest  Level FlightAware Approximate
01:07PM 19.7508 -70.6174 317° Northwest  Level FlightAware Approximate
01:08PM 19.8353 -70.6848 325° Northwest  Level FlightAware Approximate
01:09PM 19.9218 -70.7497 325° Northwest  Level FlightAware Approximate
01:10PM 20.0084 -70.8145 325° Northwest  Level FlightAware Approximate
01:11PM 20.0949 -70.8795 325° Northwest  Level FlightAware Approximate
01:12PM 20.1814 -70.9443 325° Northwest  Level FlightAware Approximate
01:13PM 20.2680 -71.0092 325° Northwest  Level FlightAware Approximate
01:14PM 20.3545 -71.0742 325° Northwest  Level FlightAware Approximate
01:15PM 20.4337 -71.1456 302° West  Level FlightAware Approximate
01:15PM 20.1228 -70.9547 302° West 453 521 38,000  Level Miami Center
01:16PM 20.4901 -71.2412 302° West  Level FlightAware Approximate
01:16PM 20.2250 -71.0144 331° Northwest 436 502 38,000  Level Miami Center
01:17PM 20.5463 -71.3370 302° West  Level FlightAware Approximate
01:17PM 20.3314 -71.0719 333° Northwest 426 490 38,000  Level Miami Center
01:18PM 20.6037 -71.4320 304° West  Level FlightAware Approximate
01:18PM 20.4278 -71.1408 326° Northwest 421 484 38,000  Level Miami Center
01:19PM 20.6632 -71.5255 304° West  Level FlightAware Approximate
01:19PM 20.4919 -71.2397 305° West 402 463 38,000  Level Miami Center
01:20PM 20.7216 -71.6198 302° West  Level FlightAware Approximate
01:20PM 20.5603 -71.3478 304° West 408 470 38,000  Level Miami Center
01:21PM 20.6222 -71.4492 303° West 408 470 38,000  Level Miami Center
01:22PM 20.6842 -71.5511 303° West 408 470 38,000  Level Miami Center
01:23PM 20.7458 -71.6483 304° West 408 470 38,000  Level Miami Center
01:24PM 20.8075 -71.7481 303° West 408 470 38,000  Level Miami Center
01:25PM 20.8692 -71.8478 304° West 408 470 38,000  Level Miami Center
01:26PM 20.9286 -71.9456 303° West 403 464 38,000  Level Miami Center
01:27PM 20.9903 -72.0456 303° West 403 464 38,000  Level Miami Center
01:28PM 21.0517 -72.1456 303° West 403 464 38,000  Level Miami Center
01:29PM 21.1131 -72.2433 304° West 403 464 38,000  Level Miami Center
01:30PM 21.1725 -72.3414 303° West 403 464 38,000  Level Miami Center
01:31PM 21.2336 -72.4394 304° West 403 464 38,000  Level Miami Center
01:32PM 21.2928 -72.5378 303° West 398 458 38,000  Level Miami Center
01:33PM 21.3519 -72.6361 303° West 398 458 38,000  Level Miami Center
01:34PM 21.4150 -72.7344 305° West 398 458 38,000  Level Miami Center
01:35PM 21.4739 -72.8331 303° West 398 458 38,000  Level Miami Center
01:36PM 21.5350 -72.9314 304° West 393 452 38,000  Level Miami Center
01:37PM 21.5919 -73.0325 301° West 398 458 38,000  Level Miami Center
01:38PM 21.6506 -73.1314 303° West 398 458 38,000  Level Miami Center
01:39PM 21.7094 -73.2325 302° West 398 458 38,000  Level Miami Center
01:40PM 21.7722 -73.3333 304° West 398 458 38,000  Level Miami Center
01:41PM 21.8289 -73.4325 302° West 398 458 38,000  Level Miami Center
01:42PM 21.8894 -73.5339 303° West 398 458 38,000  Level Miami Center
01:43PM 21.9522 -73.6331 304° West 398 458 38,000  Level Miami Center
01:44PM 22.0044 -73.7347 299° West 398 458 38,000  Level Miami Center
01:45PM 22.0628 -73.8342 302° West 398 458 38,000  Level Miami Center
01:46PM 22.1294 -73.9336 306° West 398 458 38,000  Level Miami Center
01:47PM 22.1878 -74.0353 302° West 403 464 38,000  Level Miami Center
01:48PM 22.2483 -74.1372 303° West 403 464 38,000  Level Miami Center
01:49PM 22.3086 -74.2392 303° West 403 464 38,000  Level Miami Center
01:50PM 22.3708 -74.3392 304° West 398 458 38,000  Level Miami Center
01:51PM 22.4331 -74.4433 303° West 403 464 38,000  Level Miami Center
01:52PM 22.4911 -74.5458 302° West 403 464 38,000  Level Miami Center
01:53PM 22.5511 -74.6481 302° West 408 470 38,000  Level Miami Center
01:54PM 22.6131 -74.7506 303° West 408 470 38,000  Level Miami Center
01:55PM 22.6708 -74.8531 301° West 408 470 38,000  Level Miami Center
01:56PM 22.7328 -74.9581 303° West 408 470 38,000  Level Miami Center
01:57PM 22.7906 -75.0631 301° West 408 470 38,000  Level Miami Center
01:58PM 22.8503 -75.1661 302° West 408 470 38,000  Level Miami Center
01:59PM 22.9119 -75.2711 303° West 408 470 38,000  Level Miami Center
02:00PM 22.9631 -75.3631 301° West 408 470 38,000  Level Miami Center
02:01PM 23.0247 -75.4661 303° West 408 470 38,000  Level Miami Center
02:02PM 23.0861 -75.5694 303° West 413 475 38,000  Level Miami Center
02:03PM 23.1456 -75.6750 302° West 408 470 38,000  Level Miami Center
02:04PM 23.2047 -75.7783 302° West 408 470 38,000  Level Miami Center
02:05PM 23.2642 -75.8864 301° West 408 470 38,000  Level Miami Center
02:06PM 23.3253 -75.9922 302° West 408 470 38,000  Level Miami Center
02:07PM 23.3864 -76.0961 303° West 408 470 38,000  Level Miami Center
02:08PM 23.4475 -76.1997 303° West 408 470 38,000  Level Miami Center
02:09PM 23.5108 -76.3106 302° West 408 470 38,000  Level Miami Center
02:10PM 23.5697 -76.4144 302° West 408 470 38,000  Level Miami Center
02:11PM 23.6283 -76.5186 302° West 408 470 38,000  Level Miami Center
02:12PM 23.6872 -76.6206 302° West 408 470 38,000  Level Miami Center
02:13PM 23.7458 -76.7250 302° West 408 470 38,000  Level Miami Center
02:14PM 23.8044 -76.8269 302° West 408 470 38,000  Level Miami Center
02:15PM 23.8628 -76.9317 301° West 408 470 38,000  Level Miami Center
02:16PM 23.9172 -77.0317 301° West 403 464 38,000  Level Miami Center
02:17PM 23.9756 -77.1364 301° West 404 465 38,000  Level Miami Center
02:18PM 24.0336 -77.2433 301° West 404 465 38,000  Level Miami Center
02:19PM 24.0942 -77.3461 303° West 404 465 38,000  Level Miami Center
02:20PM 24.1522 -77.4556 300° West 404 465 38,000  Level Miami Center
02:21PM 24.2103 -77.5631 301° West 404 465 38,000  Level Miami Center
02:22PM 24.2683 -77.6658 302° West 404 465 38,000  Level Miami Center
02:23PM 24.3261 -77.7756 300° West 404 465 38,000  Level Miami Center
02:24PM 24.3861 -77.8811 302° West 404 465 38,000  Level Miami Center
02:25PM 24.4439 -77.9842 302° West 409 471 38,000  Level Miami Center
02:26PM 24.4806 -78.0942 290° West 399 459 38,000  Level Miami Center
02:27PM 24.4692 -78.2128 264° West 378 435 38,000 -180 Level Miami Center
02:28PM 24.4533 -78.3314 262° West 384 442 37,700 -600 Descending Miami Center
02:29PM 24.4753 -78.4367 283° West 390 449 36,900 -960 Descending Miami Center
02:30PM 24.5431 -78.5333 308° West 375 432 35,800 -1,200 Descending Miami Center
02:31PM 24.6172 -78.6328 309° West 395 455 34,500 -1,380 Descending Miami Center
02:32PM 24.6850 -78.7275 308° West 406 467 33,100 -1,500 Descending Miami Center
02:33PM 24.7589 -78.8292 309° West 411 473 31,600 -1,500 Descending Miami Center
02:34PM 24.8225 -78.9242 306° West 411 473 30,200 -1,620 Descending Miami Center
02:35PM 24.9025 -79.0308 310° West 411 473 28,400 -1,800 Descending Miami Center
02:36PM 24.9700 -79.1283 307° West 411 473 26,600 -1,980 Descending Miami Center
02:37PM 25.0353 -79.2189 309° West 398 458 24,500 -2,160 Descending Miami Center
02:38PM 25.1008 -79.3119 308° West 387 445 22,400 -2,160 Descending Miami Center
02:39PM 25.1639 -79.4006 308° West 382 440 20,200 -2,100 Descending Miami Center
02:39PM 25.1883 -79.4378 306° West 367 422 19,400 -2,100 Descending Miami Center
02:40PM 25.2231 -79.4889 307° West 370 426 18,100 -2,400 Descending Miami Center
02:40PM 25.2556 -79.5378 306° West 355 409 16,700 -2,340 Descending Miami Center
02:41PM 25.2842 -79.5731 312° West 360 414 15,800 -2,280 Descending Miami Center
02:41PM 25.3147 -79.6219 305° West 349 402 14,400 -2,100 Descending Miami Center
02:42PM 25.3433 -79.6569 312° West 354 407 13,700 -2,100 Descending Miami Center
02:42PM 25.3756 -79.7108 304° West 333 383 12,300 -1,740 Descending Miami Center
02:43PM 25.4003 -79.7367 317° Northwest 343 395 12,000 -300 Descending Miami Center
02:43PM 25.4306 -79.7925 301° West 326 375 12,000 -120 Level Miami Center
02:44PM 25.4508 -79.8206 309° West 338 389 11,900 -600 Descending Miami Center
02:44PM 25.4831 -79.8744 304° West 329 379 11,400 -840 Descending Miami Center
02:45PM 25.5056 -79.9003 314° West 338 389 11,100 -1,020 Descending Miami Center
02:45PM 25.5378 -79.9539 304° West 314 361 10,400 -1,020 Descending Miami Center
02:46PM 25.5561 -79.9775 311° West 333 383 10,100 -1,020 Descending Miami Center
02:46PM 25.5822 -80.0267 300° West 287 330 9,400 -1,020 Descending Miami Center
02:47PM 25.6028 -80.0500 314° West 314 361 9,100 -420 Descending Miami Center
02:47PM 25.6286 -80.1014 299° West 264 304 9,000 -120 Descending Miami Center
02:48PM 25.6453 -80.1133 327° Northwest 285 328 9,000 -120 Level Miami Center
02:48PM 25.6628 -80.1600 293° West 236 272 8,900 -240 Descending Miami Center
02:49PM 25.6731 -80.1742 309° West 249 287 8,800 -900 Descending Miami Center
02:49PM 25.6822 -80.2319 280° West 226 260 7,900 -840 Descending Miami Center
02:51PM 25.7053 -80.3111 288° West 228 262 7,200 -900 Descending Miami Center
02:52PM 25.7036 -80.3825 269° West 227 261 6,000 -1,320 Descending Miami Center
02:53PM 25.6981 -80.4469 265° West 215 247 4,600 -1,080 Descending Miami Center
02:54PM 25.6964 -80.5089 268° West 217 250 4,000 -480 Descending Miami Center
02:55PM 25.7461 -80.5314 338° Northwest 214 246 3,700 -600 Descending Miami Center
02:56PM 25.7786 -80.4747 57° Northeast 199 229 2,700 -900 Descending Miami Center